sensor_id;sensor_type;location;lat;lon;timestamp;temperature;humidity
7936;DHT22;4013;49.744;8.118;2023-01-19T00:01:39;0.80;99.90
7936;DHT22;4013;49.744;8.118;2023-01-19T00:04:06;0.80;99.90
7936;DHT22;4013;49.744;8.118;2023-01-19T00:06:33;0.80;99.90
7936;DHT22;4013;49.744;8.118;2023-01-19T00:09:00;0.80;99.90
7936;DHT22;4013;49.744;8.118;2023-01-19T00:11:27;0.80;99.90
7936;DHT22;4013;49.744;8.118;2023-01-19T00:13:55;0.80;99.90
7936;DHT22;4013;49.744;8.118;2023-01-19T00:16:23;0.80;99.90
7936;DHT22;4013;49.744;8.118;2023-01-19T00:18:51;0.70;99.90
7936;DHT22;4013;49.744;8.118;2023-01-19T00:21:18;0.70;99.90
7936;DHT22;4013;49.744;8.118;2023-01-19T00:23:46;0.70;99.90
7936;DHT22;4013;49.744;8.118;2023-01-19T00:26:15;0.70;99.90
7936;DHT22;4013;49.744;8.118;2023-01-19T00:28:43;0.80;99.90
7936;DHT22;4013;49.744;8.118;2023-01-19T00:31:12;0.70;99.90
7936;DHT22;4013;49.744;8.118;2023-01-19T00:33:38;0.70;99.90
7936;DHT22;4013;49.744;8.118;2023-01-19T00:36:06;0.70;99.90
7936;DHT22;4013;49.744;8.118;2023-01-19T00:38:33;0.60;99.90
7936;DHT22;4013;49.744;8.118;2023-01-19T00:41:00;0.60;99.90
7936;DHT22;4013;49.744;8.118;2023-01-19T00:43:27;0.60;99.90
7936;DHT22;4013;49.744;8.118;2023-01-19T00:45:53;0.50;99.90
7936;DHT22;4013;49.744;8.118;2023-01-19T00:48:21;0.50;99.90
7936;DHT22;4013;49.744;8.118;2023-01-19T00:50:49;0.50;99.90
7936;DHT22;4013;49.744;8.118;2023-01-19T00:53:16;0.40;99.90
7936;DHT22;4013;49.744;8.118;2023-01-19T00:55:43;0.40;99.90
7936;DHT22;4013;49.744;8.118;2023-01-19T00:58:10;0.40;99.90
7936;DHT22;4013;49.744;8.118;2023-01-19T01:00:37;0.40;99.90
7936;DHT22;4013;49.744;8.118;2023-01-19T01:03:04;0.40;99.90
7936;DHT22;4013;49.744;8.118;2023-01-19T01:05:32;0.40;99.90
7936;DHT22;4013;49.744;8.118;2023-01-19T01:07:59;0.50;99.90
7936;DHT22;4013;49.744;8.118;2023-01-19T01:10:27;0.50;99.90
7936;DHT22;4013;49.744;8.118;2023-01-19T01:12:55;0.50;99.90
7936;DHT22;4013;49.744;8.118;2023-01-19T01:15:22;0.50;99.90
7936;DHT22;4013;49.744;8.118;2023-01-19T01:17:50;0.50;99.90
7936;DHT22;4013;49.744;8.118;2023-01-19T01:20:19;0.50;99.90
7936;DHT22;4013;49.744;8.118;2023-01-19T01:22:49;0.50;99.90
7936;DHT22;4013;49.744;8.118;2023-01-19T01:25:19;0.50;99.90
7936;DHT22;4013;49.744;8.118;2023-01-19T01:27:47;0.60;99.90
7936;DHT22;4013;49.744;8.118;2023-01-19T01:30:15;0.60;99.90
7936;DHT22;4013;49.744;8.118;2023-01-19T01:32:42;0.60;99.90
7936;DHT22;4013;49.744;8.118;2023-01-19T01:35:09;0.60;99.90
7936;DHT22;4013;49.744;8.118;2023-01-19T01:37:37;0.50;99.90
7936;DHT22;4013;49.744;8.118;2023-01-19T01:40:07;0.50;99.90
7936;DHT22;4013;49.744;8.118;2023-01-19T01:42:34;0.50;99.90
7936;DHT22;4013;49.744;8.118;2023-01-19T01:45:04;0.50;99.90
7936;DHT22;4013;49.744;8.118;2023-01-19T01:47:37;0.60;99.90
7936;DHT22;4013;49.744;8.118;2023-01-19T01:50:10;0.60;99.90
7936;DHT22;4013;49.744;8.118;2023-01-19T01:52:44;0.60;99.90
7936;DHT22;4013;49.744;8.118;2023-01-19T01:55:14;0.60;99.90
7936;DHT22;4013;49.744;8.118;2023-01-19T01:57:44;0.60;99.90
7936;DHT22;4013;49.744;8.118;2023-01-19T02:00:13;0.70;99.90
7936;DHT22;4013;49.744;8.118;2023-01-19T02:02:41;0.60;99.90
7936;DHT22;4013;49.744;8.118;2023-01-19T02:05:19;0.70;99.90
7936;DHT22;4013;49.744;8.118;2023-01-19T02:07:51;0.70;99.90
7936;DHT22;4013;49.744;8.118;2023-01-19T02:10:40;0.70;99.90
7936;DHT22;4013;49.744;8.118;2023-01-19T02:13:25;0.70;99.90
7936;DHT22;4013;49.744;8.118;2023-01-19T02:15:54;0.70;99.90
7936;DHT22;4013;49.744;8.118;2023-01-19T02:18:24;0.80;99.90
7936;DHT22;4013;49.744;8.118;2023-01-19T02:21:01;0.80;99.90
7936;DHT22;4013;49.744;8.118;2023-01-19T02:23:38;0.70;99.90
7936;DHT22;4013;49.744;8.118;2023-01-19T02:26:06;0.70;99.90
7936;DHT22;4013;49.744;8.118;2023-01-19T02:28:36;0.70;99.90
7936;DHT22;4013;49.744;8.118;2023-01-19T02:31:05;0.60;99.90
7936;DHT22;4013;49.744;8.118;2023-01-19T02:33:32;0.60;99.90
7936;DHT22;4013;49.744;8.118;2023-01-19T02:35:59;0.70;99.90
7936;DHT22;4013;49.744;8.118;2023-01-19T02:38:28;0.70;99.90
7936;DHT22;4013;49.744;8.118;2023-01-19T02:40:58;0.70;99.90
7936;DHT22;4013;49.744;8.118;2023-01-19T02:43:28;0.70;99.90
7936;DHT22;4013;49.744;8.118;2023-01-19T02:45:55;0.70;99.90
7936;DHT22;4013;49.744;8.118;2023-01-19T02:48:22;0.60;99.90
7936;DHT22;4013;49.744;8.118;2023-01-19T02:50:51;0.60;99.90
7936;DHT22;4013;49.744;8.118;2023-01-19T02:56:38;0.50;99.90
7936;DHT22;4013;49.744;8.118;2023-01-19T02:59:14;0.50;99.90
7936;DHT22;4013;49.744;8.118;2023-01-19T03:01:58;0.50;99.90
7936;DHT22;4013;49.744;8.118;2023-01-19T03:04:34;0.50;99.90
7936;DHT22;4013;49.744;8.118;2023-01-19T03:07:09;0.50;99.90
7936;DHT22;4013;49.744;8.118;2023-01-19T03:09:41;0.50;99.90
7936;DHT22;4013;49.744;8.118;2023-01-19T03:12:23;0.50;99.90
7936;DHT22;4013;49.744;8.118;2023-01-19T03:14:54;0.60;99.90
7936;DHT22;4013;49.744;8.118;2023-01-19T03:17:25;0.50;99.90
7936;DHT22;4013;49.744;8.118;2023-01-19T03:19:53;0.50;99.90
7936;DHT22;4013;49.744;8.118;2023-01-19T03:22:23;0.50;99.90
7936;DHT22;4013;49.744;8.118;2023-01-19T03:24:53;0.50;99.90
7936;DHT22;4013;49.744;8.118;2023-01-19T03:27:25;0.50;99.90
7936;DHT22;4013;49.744;8.118;2023-01-19T03:29:55;0.50;99.90
7936;DHT22;4013;49.744;8.118;2023-01-19T03:32:27;0.50;99.90
7936;DHT22;4013;49.744;8.118;2023-01-19T03:34:56;0.50;99.90
7936;DHT22;4013;49.744;8.118;2023-01-19T03:37:26;0.50;99.90
7936;DHT22;4013;49.744;8.118;2023-01-19T03:39:56;0.50;99.90
7936;DHT22;4013;49.744;8.118;2023-01-19T03:42:24;0.50;99.90
7936;DHT22;4013;49.744;8.118;2023-01-19T03:44:54;0.40;99.90
7936;DHT22;4013;49.744;8.118;2023-01-19T03:47:22;0.40;99.90
7936;DHT22;4013;49.744;8.118;2023-01-19T03:49:52;0.40;99.90
7936;DHT22;4013;49.744;8.118;2023-01-19T03:52:26;0.40;99.90
7936;DHT22;4013;49.744;8.118;2023-01-19T03:54:53;0.40;99.90
7936;DHT22;4013;49.744;8.118;2023-01-19T03:57:20;0.40;99.90
7936;DHT22;4013;49.744;8.118;2023-01-19T03:59:49;0.40;99.90
7936;DHT22;4013;49.744;8.118;2023-01-19T04:02:16;0.40;99.90
7936;DHT22;4013;49.744;8.118;2023-01-19T04:04:43;0.40;99.90
7936;DHT22;4013;49.744;8.118;2023-01-19T04:07:10;0.50;99.90
7936;DHT22;4013;49.744;8.118;2023-01-19T04:09:37;0.40;99.90
7936;DHT22;4013;49.744;8.118;2023-01-19T04:12:04;0.40;99.90
7936;DHT22;4013;49.744;8.118;2023-01-19T04:14:31;0.40;99.90
7936;DHT22;4013;49.744;8.118;2023-01-19T04:16:59;0.40;99.90
7936;DHT22;4013;49.744;8.118;2023-01-19T04:19:26;0.40;99.90
7936;DHT22;4013;49.744;8.118;2023-01-19T04:21:53;0.40;99.90
7936;DHT22;4013;49.744;8.118;2023-01-19T04:24:21;0.40;99.90
7936;DHT22;4013;49.744;8.118;2023-01-19T04:26:50;0.40;99.90
7936;DHT22;4013;49.744;8.118;2023-01-19T04:29:17;0.50;99.90
7936;DHT22;4013;49.744;8.118;2023-01-19T04:31:44;0.50;99.90
7936;DHT22;4013;49.744;8.118;2023-01-19T04:34:13;0.50;99.90
7936;DHT22;4013;49.744;8.118;2023-01-19T04:36:40;0.50;99.90
7936;DHT22;4013;49.744;8.118;2023-01-19T04:39:07;0.50;99.90
7936;DHT22;4013;49.744;8.118;2023-01-19T04:41:34;0.60;99.90
7936;DHT22;4013;49.744;8.118;2023-01-19T04:44:02;0.60;99.90
7936;DHT22;4013;49.744;8.118;2023-01-19T04:46:29;0.60;99.90
7936;DHT22;4013;49.744;8.118;2023-01-19T04:48:56;0.50;99.90
7936;DHT22;4013;49.744;8.118;2023-01-19T04:51:24;0.60;99.90
7936;DHT22;4013;49.744;8.118;2023-01-19T04:53:53;0.60;99.90
7936;DHT22;4013;49.744;8.118;2023-01-19T04:56:21;0.60;99.90
7936;DHT22;4013;49.744;8.118;2023-01-19T04:58:48;0.70;99.90
7936;DHT22;4013;49.744;8.118;2023-01-19T05:01:15;0.70;99.90
7936;DHT22;4013;49.744;8.118;2023-01-19T05:03:42;0.70;99.90
7936;DHT22;4013;49.744;8.118;2023-01-19T05:06:09;0.80;99.90
7936;DHT22;4013;49.744;8.118;2023-01-19T05:08:37;0.80;99.90
7936;DHT22;4013;49.744;8.118;2023-01-19T05:11:04;0.80;99.90
7936;DHT22;4013;49.744;8.118;2023-01-19T05:13:31;0.80;99.90
7936;DHT22;4013;49.744;8.118;2023-01-19T05:15:59;0.90;99.90
7936;DHT22;4013;49.744;8.118;2023-01-19T05:18:26;0.90;99.90
7936;DHT22;4013;49.744;8.118;2023-01-19T05:20:53;0.90;99.90
7936;DHT22;4013;49.744;8.118;2023-01-19T05:23:20;1.00;99.90
7936;DHT22;4013;49.744;8.118;2023-01-19T05:25:49;1.10;99.90
7936;DHT22;4013;49.744;8.118;2023-01-19T05:28:15;1.10;99.90
7936;DHT22;4013;49.744;8.118;2023-01-19T05:30:43;1.10;99.90
7936;DHT22;4013;49.744;8.118;2023-01-19T05:33:10;1.00;99.90
7936;DHT22;4013;49.744;8.118;2023-01-19T05:35:37;1.10;99.90
7936;DHT22;4013;49.744;8.118;2023-01-19T05:38:04;1.10;99.90
7936;DHT22;4013;49.744;8.118;2023-01-19T05:40:31;1.20;99.90
7936;DHT22;4013;49.744;8.118;2023-01-19T05:43:00;1.20;99.90
7936;DHT22;4013;49.744;8.118;2023-01-19T05:45:29;1.20;99.90
7936;DHT22;4013;49.744;8.118;2023-01-19T05:47:56;1.30;99.90
7936;DHT22;4013;49.744;8.118;2023-01-19T05:50:23;1.30;99.90
7936;DHT22;4013;49.744;8.118;2023-01-19T05:52:50;1.30;99.90
7936;DHT22;4013;49.744;8.118;2023-01-19T05:55:17;1.30;99.90
7936;DHT22;4013;49.744;8.118;2023-01-19T05:57:44;1.30;99.90
7936;DHT22;4013;49.744;8.118;2023-01-19T06:00:14;1.30;99.90
7936;DHT22;4013;49.744;8.118;2023-01-19T06:02:41;1.40;99.90
7936;DHT22;4013;49.744;8.118;2023-01-19T06:05:08;1.40;99.90
7936;DHT22;4013;49.744;8.118;2023-01-19T06:07:35;1.40;99.90
7936;DHT22;4013;49.744;8.118;2023-01-19T06:10:03;1.40;99.90
7936;DHT22;4013;49.744;8.118;2023-01-19T06:12:30;1.30;99.90
7936;DHT22;4013;49.744;8.118;2023-01-19T06:14:58;1.30;99.90
7936;DHT22;4013;49.744;8.118;2023-01-19T06:17:26;1.30;99.90
7936;DHT22;4013;49.744;8.118;2023-01-19T06:19:53;1.30;99.90
7936;DHT22;4013;49.744;8.118;2023-01-19T06:22:20;1.20;99.90
7936;DHT22;4013;49.744;8.118;2023-01-19T06:24:47;1.20;99.90
7936;DHT22;4013;49.744;8.118;2023-01-19T06:27:14;1.20;99.90
7936;DHT22;4013;49.744;8.118;2023-01-19T06:29:42;1.20;99.90
7936;DHT22;4013;49.744;8.118;2023-01-19T06:32:09;1.30;99.90
7936;DHT22;4013;49.744;8.118;2023-01-19T06:34:38;1.30;99.90
7936;DHT22;4013;49.744;8.118;2023-01-19T06:37:08;1.30;99.90
7936;DHT22;4013;49.744;8.118;2023-01-19T06:39:35;1.30;99.90
7936;DHT22;4013;49.744;8.118;2023-01-19T06:42:05;1.40;99.90
7936;DHT22;4013;49.744;8.118;2023-01-19T06:44:32;1.40;99.90
7936;DHT22;4013;49.744;8.118;2023-01-19T06:46:59;1.40;99.90
7936;DHT22;4013;49.744;8.118;2023-01-19T06:49:26;1.50;99.90
7936;DHT22;4013;49.744;8.118;2023-01-19T06:51:54;1.50;99.90
7936;DHT22;4013;49.744;8.118;2023-01-19T06:54:21;1.50;99.90
7936;DHT22;4013;49.744;8.118;2023-01-19T06:56:48;1.50;99.90
7936;DHT22;4013;49.744;8.118;2023-01-19T06:59:16;1.60;99.90
7936;DHT22;4013;49.744;8.118;2023-01-19T07:01:43;1.60;99.90
7936;DHT22;4013;49.744;8.118;2023-01-19T07:04:10;1.60;99.90
7936;DHT22;4013;49.744;8.118;2023-01-19T07:06:38;1.60;99.90
7936;DHT22;4013;49.744;8.118;2023-01-19T07:09:07;1.60;99.90
7936;DHT22;4013;49.744;8.118;2023-01-19T07:11:36;1.60;99.90
7936;DHT22;4013;49.744;8.118;2023-01-19T07:14:03;1.60;99.90
7936;DHT22;4013;49.744;8.118;2023-01-19T07:16:30;1.50;99.90
7936;DHT22;4013;49.744;8.118;2023-01-19T07:18:57;1.60;99.90
7936;DHT22;4013;49.744;8.118;2023-01-19T07:21:24;1.60;99.90
7936;DHT22;4013;49.744;8.118;2023-01-19T07:23:52;1.60;99.90
7936;DHT22;4013;49.744;8.118;2023-01-19T07:26:20;1.70;99.90
7936;DHT22;4013;49.744;8.118;2023-01-19T07:28:50;1.70;99.90
7936;DHT22;4013;49.744;8.118;2023-01-19T07:31:17;1.70;99.90
7936;DHT22;4013;49.744;8.118;2023-01-19T07:33:44;1.70;99.90
7936;DHT22;4013;49.744;8.118;2023-01-19T07:36:12;1.70;99.90
7936;DHT22;4013;49.744;8.118;2023-01-19T07:38:39;1.70;99.90
7936;DHT22;4013;49.744;8.118;2023-01-19T07:41:07;1.80;99.90
7936;DHT22;4013;49.744;8.118;2023-01-19T07:43:36;1.80;99.90
7936;DHT22;4013;49.744;8.118;2023-01-19T07:46:04;1.80;99.90
7936;DHT22;4013;49.744;8.118;2023-01-19T07:48:31;1.80;99.90
7936;DHT22;4013;49.744;8.118;2023-01-19T07:50:59;1.80;99.90
7936;DHT22;4013;49.744;8.118;2023-01-19T07:53:26;1.80;99.90
7936;DHT22;4013;49.744;8.118;2023-01-19T07:55:54;1.80;99.90
7936;DHT22;4013;49.744;8.118;2023-01-19T07:58:21;1.70;99.90
7936;DHT22;4013;49.744;8.118;2023-01-19T08:00:49;1.70;99.90
7936;DHT22;4013;49.744;8.118;2023-01-19T08:03:16;1.70;99.90
7936;DHT22;4013;49.744;8.118;2023-01-19T08:05:43;1.70;99.90
7936;DHT22;4013;49.744;8.118;2023-01-19T08:08:10;1.70;99.90
7936;DHT22;4013;49.744;8.118;2023-01-19T08:10:38;1.70;99.90
7936;DHT22;4013;49.744;8.118;2023-01-19T08:13:05;1.70;99.90
7936;DHT22;4013;49.744;8.118;2023-01-19T08:15:31;1.70;99.90
7936;DHT22;4013;49.744;8.118;2023-01-19T08:18:01;1.80;99.90
7936;DHT22;4013;49.744;8.118;2023-01-19T08:20:30;1.70;99.90
7936;DHT22;4013;49.744;8.118;2023-01-19T08:22:57;1.70;99.90
7936;DHT22;4013;49.744;8.118;2023-01-19T08:25:26;1.70;99.90
7936;DHT22;4013;49.744;8.118;2023-01-19T08:27:57;1.60;99.90
7936;DHT22;4013;49.744;8.118;2023-01-19T08:30:24;1.60;99.90
7936;DHT22;4013;49.744;8.118;2023-01-19T08:32:52;1.50;99.90
7936;DHT22;4013;49.744;8.118;2023-01-19T08:35:20;1.50;99.90
7936;DHT22;4013;49.744;8.118;2023-01-19T08:37:48;1.40;99.90
7936;DHT22;4013;49.744;8.118;2023-01-19T08:40:16;1.40;99.90
7936;DHT22;4013;49.744;8.118;2023-01-19T08:42:43;1.40;99.90
7936;DHT22;4013;49.744;8.118;2023-01-19T08:45:10;1.40;99.90
7936;DHT22;4013;49.744;8.118;2023-01-19T08:47:37;1.30;99.90
7936;DHT22;4013;49.744;8.118;2023-01-19T08:50:05;1.30;99.90
7936;DHT22;4013;49.744;8.118;2023-01-19T08:52:33;1.40;99.90
7936;DHT22;4013;49.744;8.118;2023-01-19T08:55:00;1.40;99.90
7936;DHT22;4013;49.744;8.118;2023-01-19T08:57:27;1.40;99.90
7936;DHT22;4013;49.744;8.118;2023-01-19T08:59:54;1.50;99.90
7936;DHT22;4013;49.744;8.118;2023-01-19T09:02:21;1.50;99.90
7936;DHT22;4013;49.744;8.118;2023-01-19T09:04:48;1.50;99.90
7936;DHT22;4013;49.744;8.118;2023-01-19T09:07:17;1.50;99.90
7936;DHT22;4013;49.744;8.118;2023-01-19T09:09:45;1.60;99.90
7936;DHT22;4013;49.744;8.118;2023-01-19T09:12:12;1.60;99.90
7936;DHT22;4013;49.744;8.118;2023-01-19T09:14:39;1.60;99.90
7936;DHT22;4013;49.744;8.118;2023-01-19T09:17:06;1.60;99.90
7936;DHT22;4013;49.744;8.118;2023-01-19T09:19:33;1.60;99.90
7936;DHT22;4013;49.744;8.118;2023-01-19T09:22:00;1.70;99.90
7936;DHT22;4013;49.744;8.118;2023-01-19T09:24:27;1.70;99.90
7936;DHT22;4013;49.744;8.118;2023-01-19T09:26:55;1.80;99.90
7936;DHT22;4013;49.744;8.118;2023-01-19T09:29:22;1.90;99.90
7936;DHT22;4013;49.744;8.118;2023-01-19T09:31:49;2.00;99.90
7936;DHT22;4013;49.744;8.118;2023-01-19T09:34:16;2.10;99.90
7936;DHT22;4013;49.744;8.118;2023-01-19T09:36:43;2.20;99.90
7936;DHT22;4013;49.744;8.118;2023-01-19T09:39:11;2.20;99.90
7936;DHT22;4013;49.744;8.118;2023-01-19T09:41:44;2.20;99.90
7936;DHT22;4013;49.744;8.118;2023-01-19T09:44:17;2.20;99.90
7936;DHT22;4013;49.744;8.118;2023-01-19T09:46:46;2.20;99.90
7936;DHT22;4013;49.744;8.118;2023-01-19T09:49:14;2.20;99.90
7936;DHT22;4013;49.744;8.118;2023-01-19T09:51:45;2.20;99.90
7936;DHT22;4013;49.744;8.118;2023-01-19T09:54:15;2.30;99.90
7936;DHT22;4013;49.744;8.118;2023-01-19T09:56:42;2.30;99.90
7936;DHT22;4013;49.744;8.118;2023-01-19T09:59:30;2.40;99.90
7936;DHT22;4013;49.744;8.118;2023-01-19T10:02:17;2.50;99.90
7936;DHT22;4013;49.744;8.118;2023-01-19T10:04:54;2.70;99.90
7936;DHT22;4013;49.744;8.118;2023-01-19T10:07:31;2.70;99.90
7936;DHT22;4013;49.744;8.118;2023-01-19T10:10:08;2.80;99.90
7936;DHT22;4013;49.744;8.118;2023-01-19T10:12:52;2.80;99.90
7936;DHT22;4013;49.744;8.118;2023-01-19T10:15:30;3.00;99.90
7936;DHT22;4013;49.744;8.118;2023-01-19T10:18:10;3.10;99.90
7936;DHT22;4013;49.744;8.118;2023-01-19T10:20:41;3.20;99.90
7936;DHT22;4013;49.744;8.118;2023-01-19T10:23:20;3.20;99.90
7936;DHT22;4013;49.744;8.118;2023-01-19T10:25:49;3.20;99.90
7936;DHT22;4013;49.744;8.118;2023-01-19T10:28:22;3.20;99.90
7936;DHT22;4013;49.744;8.118;2023-01-19T10:30:52;3.10;99.90
7936;DHT22;4013;49.744;8.118;2023-01-19T10:33:20;3.10;99.90
7936;DHT22;4013;49.744;8.118;2023-01-19T10:35:47;3.10;99.90
7936;DHT22;4013;49.744;8.118;2023-01-19T10:38:14;3.00;99.90
7936;DHT22;4013;49.744;8.118;2023-01-19T10:40:49;3.00;99.90
7936;DHT22;4013;49.744;8.118;2023-01-19T10:43:37;3.00;99.90
7936;DHT22;4013;49.744;8.118;2023-01-19T10:46:15;3.00;99.90
7936;DHT22;4013;49.744;8.118;2023-01-19T10:48:43;3.00;99.90
7936;DHT22;4013;49.744;8.118;2023-01-19T10:51:13;3.10;99.90
7936;DHT22;4013;49.744;8.118;2023-01-19T10:53:42;3.10;99.90
7936;DHT22;4013;49.744;8.118;2023-01-19T10:56:22;3.00;99.90
7936;DHT22;4013;49.744;8.118;2023-01-19T10:58:49;3.10;99.90
7936;DHT22;4013;49.744;8.118;2023-01-19T11:01:20;3.20;99.90
7936;DHT22;4013;49.744;8.118;2023-01-19T11:03:47;3.20;99.90
7936;DHT22;4013;49.744;8.118;2023-01-19T11:06:22;3.30;99.90
7936;DHT22;4013;49.744;8.118;2023-01-19T11:08:51;3.30;99.90
7936;DHT22;4013;49.744;8.118;2023-01-19T11:11:19;3.30;99.90
7936;DHT22;4013;49.744;8.118;2023-01-19T11:14:03;3.30;99.90
7936;DHT22;4013;49.744;8.118;2023-01-19T11:16:34;3.40;99.90
7936;DHT22;4013;49.744;8.118;2023-01-19T11:19:03;3.40;99.90
7936;DHT22;4013;49.744;8.118;2023-01-19T11:21:31;3.50;99.90
7936;DHT22;4013;49.744;8.118;2023-01-19T11:24:00;3.50;99.90
7936;DHT22;4013;49.744;8.118;2023-01-19T11:26:32;3.50;99.90
7936;DHT22;4013;49.744;8.118;2023-01-19T11:29:02;3.50;99.90
7936;DHT22;4013;49.744;8.118;2023-01-19T11:31:32;3.50;99.90
7936;DHT22;4013;49.744;8.118;2023-01-19T11:36:37;3.60;99.90
7936;DHT22;4013;49.744;8.118;2023-01-19T11:39:20;3.50;99.90
7936;DHT22;4013;49.744;8.118;2023-01-19T11:41:50;3.50;99.90
7936;DHT22;4013;49.744;8.118;2023-01-19T11:44:20;3.50;99.90
7936;DHT22;4013;49.744;8.118;2023-01-19T11:46:51;3.50;99.90
7936;DHT22;4013;49.744;8.118;2023-01-19T11:49:22;3.50;99.90
7936;DHT22;4013;49.744;8.118;2023-01-19T11:51:58;3.60;99.90
7936;DHT22;4013;49.744;8.118;2023-01-19T11:54:30;3.60;99.90
7936;DHT22;4013;49.744;8.118;2023-01-19T11:56:59;3.60;99.90
7936;DHT22;4013;49.744;8.118;2023-01-19T11:59:27;3.70;99.90
7936;DHT22;4013;49.744;8.118;2023-01-19T12:01:57;3.70;99.90
7936;DHT22;4013;49.744;8.118;2023-01-19T12:04:29;3.70;99.90
7936;DHT22;4013;49.744;8.118;2023-01-19T12:07:02;3.70;99.90
7936;DHT22;4013;49.744;8.118;2023-01-19T12:09:34;3.70;99.90
7936;DHT22;4013;49.744;8.118;2023-01-19T12:12:03;3.80;99.90
7936;DHT22;4013;49.744;8.118;2023-01-19T12:14:37;3.80;99.90
7936;DHT22;4013;49.744;8.118;2023-01-19T12:17:11;3.80;99.90
7936;DHT22;4013;49.744;8.118;2023-01-19T12:19:43;3.80;99.90
7936;DHT22;4013;49.744;8.118;2023-01-19T12:22:14;3.80;99.90
7936;DHT22;4013;49.744;8.118;2023-01-19T12:24:47;3.70;99.90
7936;DHT22;4013;49.744;8.118;2023-01-19T12:27:21;3.70;99.90
7936;DHT22;4013;49.744;8.118;2023-01-19T12:29:53;3.70;99.90
7936;DHT22;4013;49.744;8.118;2023-01-19T12:32:32;3.80;99.90
7936;DHT22;4013;49.744;8.118;2023-01-19T12:34:59;3.70;99.90
7936;DHT22;4013;49.744;8.118;2023-01-19T12:37:39;3.80;99.90
7936;DHT22;4013;49.744;8.118;2023-01-19T12:40:24;3.80;99.90
7936;DHT22;4013;49.744;8.118;2023-01-19T12:42:58;3.70;99.90
7936;DHT22;4013;49.744;8.118;2023-01-19T12:45:29;3.60;99.90
7936;DHT22;4013;49.744;8.118;2023-01-19T12:47:56;3.60;99.90
7936;DHT22;4013;49.744;8.118;2023-01-19T12:50:24;3.70;99.90
7936;DHT22;4013;49.744;8.118;2023-01-19T12:52:57;3.60;99.90
7936;DHT22;4013;49.744;8.118;2023-01-19T12:55:26;3.60;99.90
7936;DHT22;4013;49.744;8.118;2023-01-19T12:58:03;3.60;99.90
7936;DHT22;4013;49.744;8.118;2023-01-19T13:00:36;3.60;99.90
7936;DHT22;4013;49.744;8.118;2023-01-19T13:05:49;3.60;99.90
7936;DHT22;4013;49.744;8.118;2023-01-19T13:08:23;3.70;99.90
7936;DHT22;4013;49.744;8.118;2023-01-19T13:11:18;3.60;99.90
7936;DHT22;4013;49.744;8.118;2023-01-19T13:17:29;3.70;99.90
7936;DHT22;4013;49.744;8.118;2023-01-19T13:20:17;3.70;99.90
7936;DHT22;4013;49.744;8.118;2023-01-19T13:25:35;3.60;99.90
7936;DHT22;4013;49.744;8.118;2023-01-19T13:28:07;3.60;99.90
7936;DHT22;4013;49.744;8.118;2023-01-19T13:30:43;3.70;99.90
7936;DHT22;4013;49.744;8.118;2023-01-19T13:33:18;3.70;99.90
7936;DHT22;4013;49.744;8.118;2023-01-19T13:35:54;3.70;99.90
7936;DHT22;4013;49.744;8.118;2023-01-19T13:38:25;3.70;99.90
7936;DHT22;4013;49.744;8.118;2023-01-19T13:40:54;3.70;99.90
7936;DHT22;4013;49.744;8.118;2023-01-19T13:43:27;3.70;99.90
7936;DHT22;4013;49.744;8.118;2023-01-19T13:45:55;3.80;99.90
7936;DHT22;4013;49.744;8.118;2023-01-19T13:48:24;3.80;99.90
7936;DHT22;4013;49.744;8.118;2023-01-19T13:51:02;3.80;99.90
7936;DHT22;4013;49.744;8.118;2023-01-19T13:53:30;3.80;99.90
7936;DHT22;4013;49.744;8.118;2023-01-19T13:56:18;3.80;99.90
7936;DHT22;4013;49.744;8.118;2023-01-19T13:59:10;3.80;99.90
7936;DHT22;4013;49.744;8.118;2023-01-19T14:01:40;3.80;99.90
7936;DHT22;4013;49.744;8.118;2023-01-19T14:04:27;3.80;99.90
7936;DHT22;4013;49.744;8.118;2023-01-19T14:06:59;3.80;99.90
7936;DHT22;4013;49.744;8.118;2023-01-19T14:09:26;3.80;99.90
7936;DHT22;4013;49.744;8.118;2023-01-19T14:12:11;3.80;99.90
7936;DHT22;4013;49.744;8.118;2023-01-19T14:14:38;3.80;99.90
7936;DHT22;4013;49.744;8.118;2023-01-19T14:17:21;3.80;99.90
7936;DHT22;4013;49.744;8.118;2023-01-19T14:19:49;3.80;99.90
7936;DHT22;4013;49.744;8.118;2023-01-19T14:22:16;3.80;99.90
7936;DHT22;4013;49.744;8.118;2023-01-19T14:24:43;3.80;99.90
7936;DHT22;4013;49.744;8.118;2023-01-19T14:27:23;3.80;99.90
7936;DHT22;4013;49.744;8.118;2023-01-19T14:29:51;3.80;99.90
7936;DHT22;4013;49.744;8.118;2023-01-19T14:32:21;3.80;99.90
7936;DHT22;4013;49.744;8.118;2023-01-19T14:34:50;3.70;99.90
7936;DHT22;4013;49.744;8.118;2023-01-19T14:37:21;3.70;99.90
7936;DHT22;4013;49.744;8.118;2023-01-19T14:39:50;3.80;99.90
7936;DHT22;4013;49.744;8.118;2023-01-19T14:42:25;3.70;99.90
7936;DHT22;4013;49.744;8.118;2023-01-19T14:44:55;3.80;99.90
7936;DHT22;4013;49.744;8.118;2023-01-19T14:47:30;3.80;99.90
7936;DHT22;4013;49.744;8.118;2023-01-19T14:50:02;3.90;99.90
7936;DHT22;4013;49.744;8.118;2023-01-19T14:52:32;3.80;99.90
7936;DHT22;4013;49.744;8.118;2023-01-19T14:55:01;3.90;99.90
7936;DHT22;4013;49.744;8.118;2023-01-19T14:57:34;3.90;99.90
7936;DHT22;4013;49.744;8.118;2023-01-19T15:00:10;3.90;99.90
7936;DHT22;4013;49.744;8.118;2023-01-19T15:02:40;3.90;99.90
7936;DHT22;4013;49.744;8.118;2023-01-19T15:05:07;3.90;99.90
7936;DHT22;4013;49.744;8.118;2023-01-19T15:07:36;3.90;99.90
7936;DHT22;4013;49.744;8.118;2023-01-19T15:10:03;3.90;99.90
7936;DHT22;4013;49.744;8.118;2023-01-19T15:12:31;3.80;99.90
7936;DHT22;4013;49.744;8.118;2023-01-19T15:15:00;3.80;99.90
7936;DHT22;4013;49.744;8.118;2023-01-19T15:17:27;3.70;99.90
7936;DHT22;4013;49.744;8.118;2023-01-19T15:19:54;3.80;99.90
7936;DHT22;4013;49.744;8.118;2023-01-19T15:22:24;3.70;99.90
7936;DHT22;4013;49.744;8.118;2023-01-19T15:24:53;3.70;99.90
7936;DHT22;4013;49.744;8.118;2023-01-19T15:27:22;3.70;99.90
7936;DHT22;4013;49.744;8.118;2023-01-19T15:29:49;3.70;99.90
7936;DHT22;4013;49.744;8.118;2023-01-19T15:32:19;3.70;99.90
7936;DHT22;4013;49.744;8.118;2023-01-19T15:34:46;3.70;99.90
7936;DHT22;4013;49.744;8.118;2023-01-19T15:37:13;3.70;99.90
7936;DHT22;4013;49.744;8.118;2023-01-19T15:39:40;3.70;99.90
7936;DHT22;4013;49.744;8.118;2023-01-19T15:42:10;3.70;99.90
7936;DHT22;4013;49.744;8.118;2023-01-19T15:44:38;3.60;99.90
7936;DHT22;4013;49.744;8.118;2023-01-19T15:47:05;3.60;99.90
7936;DHT22;4013;49.744;8.118;2023-01-19T15:49:33;3.60;99.90
7936;DHT22;4013;49.744;8.118;2023-01-19T15:52:00;3.60;99.90
7936;DHT22;4013;49.744;8.118;2023-01-19T15:54:27;3.50;99.90
7936;DHT22;4013;49.744;8.118;2023-01-19T15:56:54;3.60;99.90
7936;DHT22;4013;49.744;8.118;2023-01-19T15:59:21;3.60;99.90
7936;DHT22;4013;49.744;8.118;2023-01-19T16:01:48;3.60;99.90
7936;DHT22;4013;49.744;8.118;2023-01-19T16:04:15;3.60;99.90
7936;DHT22;4013;49.744;8.118;2023-01-19T16:06:43;3.60;99.90
7936;DHT22;4013;49.744;8.118;2023-01-19T16:09:10;3.50;99.90
7936;DHT22;4013;49.744;8.118;2023-01-19T16:11:43;3.50;99.90
7936;DHT22;4013;49.744;8.118;2023-01-19T16:14:10;3.50;99.90
7936;DHT22;4013;49.744;8.118;2023-01-19T16:16:37;3.50;99.90
7936;DHT22;4013;49.744;8.118;2023-01-19T16:19:04;3.50;99.90
7936;DHT22;4013;49.744;8.118;2023-01-19T16:21:31;3.50;99.90
7936;DHT22;4013;49.744;8.118;2023-01-19T16:23:59;3.60;99.90
7936;DHT22;4013;49.744;8.118;2023-01-19T16:26:29;3.50;99.90
7936;DHT22;4013;49.744;8.118;2023-01-19T16:28:58;3.40;99.90
7936;DHT22;4013;49.744;8.118;2023-01-19T16:31:26;3.50;99.90
7936;DHT22;4013;49.744;8.118;2023-01-19T16:33:53;3.50;99.90
7936;DHT22;4013;49.744;8.118;2023-01-19T16:36:23;3.40;99.90
7936;DHT22;4013;49.744;8.118;2023-01-19T16:38:50;3.40;99.90
7936;DHT22;4013;49.744;8.118;2023-01-19T16:41:18;3.40;99.90
7936;DHT22;4013;49.744;8.118;2023-01-19T16:43:56;3.40;99.90
7936;DHT22;4013;49.744;8.118;2023-01-19T16:46:25;3.40;99.90
7936;DHT22;4013;49.744;8.118;2023-01-19T16:48:57;3.50;99.90